sensor_id;sensor_type;location;lat;lon;timestamp;P1;durP1;ratioP1;P2;durP2;ratioP2
1613;SDS011;800;48.824;9.346;2024-01-11T00:00:43;33.37;;;21.57;;
1613;SDS011;800;48.824;9.346;2024-01-11T00:03:09;36.90;;;21.70;;
1613;SDS011;800;48.824;9.346;2024-01-11T00:05:35;38.70;;;22.30;;
1613;SDS011;800;48.824;9.346;2024-01-11T00:08:01;36.33;;;21.90;;
1613;SDS011;800;48.824;9.346;2024-01-11T00:10:26;35.17;;;21.63;;
1613;SDS011;800;48.824;9.346;2024-01-11T00:12:52;34.57;;;22.43;;
1613;SDS011;800;48.824;9.346;2024-01-11T00:15:17;38.17;;;21.97;;
1613;SDS011;800;48.824;9.346;2024-01-11T00:17:43;38.87;;;20.73;;
1613;SDS011;800;48.824;9.346;2024-01-11T00:20:08;35.13;;;20.97;;
1613;SDS011;800;48.824;9.346;2024-01-11T00:22:35;40.67;;;22.10;;
1613;SDS011;800;48.824;9.346;2024-01-11T00:25:01;38.20;;;21.33;;
1613;SDS011;800;48.824;9.346;2024-01-11T00:27:27;36.13;;;21.70;;
1613;SDS011;800;48.824;9.346;2024-01-11T00:29:53;33.53;;;21.10;;
1613;SDS011;800;48.824;9.346;2024-01-11T00:32:18;31.53;;;20.03;;
1613;SDS011;800;48.824;9.346;2024-01-11T00:34:46;34.90;;;20.80;;
1613;SDS011;800;48.824;9.346;2024-01-11T00:37:12;33.03;;;20.80;;
1613;SDS011;800;48.824;9.346;2024-01-11T00:39:37;38.27;;;21.77;;
1613;SDS011;800;48.824;9.346;2024-01-11T00:42:03;34.77;;;20.13;;
1613;SDS011;800;48.824;9.346;2024-01-11T00:44:29;36.40;;;21.80;;
1613;SDS011;800;48.824;9.346;2024-01-11T00:46:54;34.83;;;20.70;;
1613;SDS011;800;48.824;9.346;2024-01-11T00:49:20;36.07;;;20.63;;
1613;SDS011;800;48.824;9.346;2024-01-11T00:51:46;33.00;;;20.97;;
1613;SDS011;800;48.824;9.346;2024-01-11T00:54:12;34.90;;;19.40;;
1613;SDS011;800;48.824;9.346;2024-01-11T00:56:37;33.67;;;18.00;;
1613;SDS011;800;48.824;9.346;2024-01-11T00:59:03;35.40;;;20.03;;
1613;SDS011;800;48.824;9.346;2024-01-11T01:01:29;32.40;;;19.30;;
1613;SDS011;800;48.824;9.346;2024-01-11T01:03:55;36.77;;;20.43;;
1613;SDS011;800;48.824;9.346;2024-01-11T01:06:20;37.47;;;20.77;;
1613;SDS011;800;48.824;9.346;2024-01-11T01:08:46;37.50;;;21.50;;
1613;SDS011;800;48.824;9.346;2024-01-11T01:11:11;40.67;;;21.73;;
1613;SDS011;800;48.824;9.346;2024-01-11T01:13:37;34.37;;;20.10;;
1613;SDS011;800;48.824;9.346;2024-01-11T01:16:03;35.90;;;19.07;;
1613;SDS011;800;48.824;9.346;2024-01-11T01:18:28;32.00;;;19.97;;
1613;SDS011;800;48.824;9.346;2024-01-11T01:20:54;38.40;;;18.97;;
1613;SDS011;800;48.824;9.346;2024-01-11T01:23:20;35.27;;;21.83;;
1613;SDS011;800;48.824;9.346;2024-01-11T01:25:46;32.97;;;19.13;;
1613;SDS011;800;48.824;9.346;2024-01-11T01:28:11;34.90;;;19.50;;
1613;SDS011;800;48.824;9.346;2024-01-11T01:30:37;37.57;;;22.57;;
1613;SDS011;800;48.824;9.346;2024-01-11T01:33:02;39.13;;;21.07;;
1613;SDS011;800;48.824;9.346;2024-01-11T01:35:28;37.83;;;22.23;;
1613;SDS011;800;48.824;9.346;2024-01-11T01:37:54;37.93;;;20.33;;
1613;SDS011;800;48.824;9.346;2024-01-11T01:40:20;36.43;;;20.70;;
1613;SDS011;800;48.824;9.346;2024-01-11T01:42:46;37.10;;;21.90;;
1613;SDS011;800;48.824;9.346;2024-01-11T01:45:12;35.60;;;19.23;;
1613;SDS011;800;48.824;9.346;2024-01-11T01:47:38;38.30;;;21.23;;
1613;SDS011;800;48.824;9.346;2024-01-11T01:50:06;36.47;;;20.53;;
1613;SDS011;800;48.824;9.346;2024-01-11T01:52:32;32.67;;;20.60;;
1613;SDS011;800;48.824;9.346;2024-01-11T01:54:59;35.90;;;21.03;;
1613;SDS011;800;48.824;9.346;2024-01-11T01:57:27;33.00;;;19.10;;
1613;SDS011;800;48.824;9.346;2024-01-11T01:59:55;35.70;;;21.73;;
1613;SDS011;800;48.824;9.346;2024-01-11T02:02:21;32.40;;;19.83;;
1613;SDS011;800;48.824;9.346;2024-01-11T02:04:47;37.20;;;19.60;;
1613;SDS011;800;48.824;9.346;2024-01-11T02:07:13;37.43;;;21.07;;
1613;SDS011;800;48.824;9.346;2024-01-11T02:09:40;35.20;;;18.97;;
1613;SDS011;800;48.824;9.346;2024-01-11T02:12:06;32.67;;;18.83;;
1613;SDS011;800;48.824;9.346;2024-01-11T02:14:36;34.80;;;21.27;;
1613;SDS011;800;48.824;9.346;2024-01-11T02:17:02;37.37;;;20.57;;
1613;SDS011;800;48.824;9.346;2024-01-11T02:19:28;30.83;;;19.73;;
1613;SDS011;800;48.824;9.346;2024-01-11T02:21:54;34.67;;;19.93;;
1613;SDS011;800;48.824;9.346;2024-01-11T02:24:20;34.10;;;20.47;;
1613;SDS011;800;48.824;9.346;2024-01-11T02:27:01;37.20;;;21.50;;
1613;SDS011;800;48.824;9.346;2024-01-11T02:29:29;37.47;;;20.90;;
1613;SDS011;800;48.824;9.346;2024-01-11T02:31:55;35.97;;;21.77;;
1613;SDS011;800;48.824;9.346;2024-01-11T02:34:25;34.33;;;21.33;;
1613;SDS011;800;48.824;9.346;2024-01-11T02:36:52;33.97;;;18.87;;
1613;SDS011;800;48.824;9.346;2024-01-11T02:39:19;43.13;;;23.43;;
1613;SDS011;800;48.824;9.346;2024-01-11T02:41:47;42.00;;;24.63;;
1613;SDS011;800;48.824;9.346;2024-01-11T02:44:15;33.50;;;20.20;;
1613;SDS011;800;48.824;9.346;2024-01-11T02:46:40;35.83;;;19.90;;
1613;SDS011;800;48.824;9.346;2024-01-11T02:49:06;30.20;;;18.63;;
1613;SDS011;800;48.824;9.346;2024-01-11T02:51:31;40.50;;;21.67;;
1613;SDS011;800;48.824;9.346;2024-01-11T02:53:57;36.77;;;20.60;;
1613;SDS011;800;48.824;9.346;2024-01-11T02:56:23;39.17;;;21.87;;
1613;SDS011;800;48.824;9.346;2024-01-11T02:58:49;36.23;;;20.97;;
1613;SDS011;800;48.824;9.346;2024-01-11T03:01:14;28.90;;;17.90;;
1613;SDS011;800;48.824;9.346;2024-01-11T03:03:40;37.60;;;20.77;;
1613;SDS011;800;48.824;9.346;2024-01-11T03:06:05;28.60;;;19.83;;
1613;SDS011;800;48.824;9.346;2024-01-11T03:08:31;35.90;;;21.30;;
1613;SDS011;800;48.824;9.346;2024-01-11T03:10:57;38.03;;;19.87;;
1613;SDS011;800;48.824;9.346;2024-01-11T03:13:22;37.00;;;20.37;;
1613;SDS011;800;48.824;9.346;2024-01-11T03:15:48;37.50;;;20.37;;
1613;SDS011;800;48.824;9.346;2024-01-11T03:18:14;33.03;;;18.17;;
1613;SDS011;800;48.824;9.346;2024-01-11T03:20:39;37.50;;;21.57;;
1613;SDS011;800;48.824;9.346;2024-01-11T03:23:05;34.10;;;19.90;;
1613;SDS011;800;48.824;9.346;2024-01-11T03:25:30;34.80;;;20.10;;
1613;SDS011;800;48.824;9.346;2024-01-11T03:27:57;32.37;;;19.57;;
1613;SDS011;800;48.824;9.346;2024-01-11T03:30:23;36.50;;;20.20;;
1613;SDS011;800;48.824;9.346;2024-01-11T03:32:49;37.07;;;20.20;;
1613;SDS011;800;48.824;9.346;2024-01-11T03:35:15;36.80;;;20.23;;
1613;SDS011;800;48.824;9.346;2024-01-11T03:37:41;33.40;;;19.20;;
1613;SDS011;800;48.824;9.346;2024-01-11T03:40:06;41.53;;;21.13;;
1613;SDS011;800;48.824;9.346;2024-01-11T03:42:32;36.87;;;19.70;;
1613;SDS011;800;48.824;9.346;2024-01-11T03:44:58;33.23;;;19.57;;
1613;SDS011;800;48.824;9.346;2024-01-11T03:47:23;40.33;;;21.17;;
1613;SDS011;800;48.824;9.346;2024-01-11T03:49:49;33.20;;;19.10;;
1613;SDS011;800;48.824;9.346;2024-01-11T03:52:14;34.37;;;20.30;;
1613;SDS011;800;48.824;9.346;2024-01-11T03:54:40;36.00;;;18.63;;
1613;SDS011;800;48.824;9.346;2024-01-11T03:57:05;36.07;;;21.17;;
1613;SDS011;800;48.824;9.346;2024-01-11T03:59:31;38.27;;;19.30;;
1613;SDS011;800;48.824;9.346;2024-01-11T04:01:57;30.83;;;18.67;;
1613;SDS011;800;48.824;9.346;2024-01-11T04:04:24;31.50;;;19.80;;
1613;SDS011;800;48.824;9.346;2024-01-11T04:06:50;46.60;;;20.33;;
1613;SDS011;800;48.824;9.346;2024-01-11T04:09:16;33.97;;;19.80;;
1613;SDS011;800;48.824;9.346;2024-01-11T04:11:42;34.70;;;20.07;;
1613;SDS011;800;48.824;9.346;2024-01-11T04:14:07;37.83;;;21.03;;
1613;SDS011;800;48.824;9.346;2024-01-11T04:16:33;36.53;;;19.50;;
1613;SDS011;800;48.824;9.346;2024-01-11T04:18:59;33.13;;;20.80;;
1613;SDS011;800;48.824;9.346;2024-01-11T04:21:26;40.23;;;20.80;;
1613;SDS011;800;48.824;9.346;2024-01-11T04:23:54;40.27;;;20.67;;
1613;SDS011;800;48.824;9.346;2024-01-11T04:26:21;37.17;;;19.63;;
1613;SDS011;800;48.824;9.346;2024-01-11T04:28:47;36.93;;;20.00;;
1613;SDS011;800;48.824;9.346;2024-01-11T04:31:13;41.43;;;18.53;;
1613;SDS011;800;48.824;9.346;2024-01-11T04:33:40;37.03;;;20.60;;
1613;SDS011;800;48.824;9.346;2024-01-11T04:36:07;36.03;;;19.20;;
1613;SDS011;800;48.824;9.346;2024-01-11T04:38:33;37.87;;;20.93;;
1613;SDS011;800;48.824;9.346;2024-01-11T04:40:58;39.77;;;22.00;;
1613;SDS011;800;48.824;9.346;2024-01-11T04:43:24;42.23;;;22.27;;
1613;SDS011;800;48.824;9.346;2024-01-11T04:45:49;35.27;;;21.47;;
1613;SDS011;800;48.824;9.346;2024-01-11T04:48:16;32.50;;;20.70;;
1613;SDS011;800;48.824;9.346;2024-01-11T04:50:42;32.37;;;18.70;;
1613;SDS011;800;48.824;9.346;2024-01-11T04:53:09;35.53;;;19.67;;
1613;SDS011;800;48.824;9.346;2024-01-11T04:55:34;33.50;;;19.60;;
1613;SDS011;800;48.824;9.346;2024-01-11T04:58:00;29.13;;;18.43;;
1613;SDS011;800;48.824;9.346;2024-01-11T05:00:25;31.37;;;19.37;;
1613;SDS011;800;48.824;9.346;2024-01-11T05:02:51;33.70;;;19.13;;
1613;SDS011;800;48.824;9.346;2024-01-11T05:05:16;36.00;;;18.57;;
1613;SDS011;800;48.824;9.346;2024-01-11T05:07:42;38.47;;;20.53;;
1613;SDS011;800;48.824;9.346;2024-01-11T05:10:08;34.60;;;19.80;;
1613;SDS011;800;48.824;9.346;2024-01-11T05:12:33;36.13;;;19.07;;
1613;SDS011;800;48.824;9.346;2024-01-11T05:14:59;33.60;;;19.90;;
1613;SDS011;800;48.824;9.346;2024-01-11T05:17:25;33.10;;;18.40;;
1613;SDS011;800;48.824;9.346;2024-01-11T05:19:51;31.07;;;18.90;;
1613;SDS011;800;48.824;9.346;2024-01-11T05:22:17;31.83;;;18.67;;
1613;SDS011;800;48.824;9.346;2024-01-11T05:24:43;34.53;;;19.37;;
1613;SDS011;800;48.824;9.346;2024-01-11T05:27:08;30.43;;;18.50;;
1613;SDS011;800;48.824;9.346;2024-01-11T05:29:34;31.97;;;18.60;;
1613;SDS011;800;48.824;9.346;2024-01-11T05:31:59;32.23;;;19.20;;
1613;SDS011;800;48.824;9.346;2024-01-11T05:34:25;40.90;;;19.87;;
1613;SDS011;800;48.824;9.346;2024-01-11T05:36:50;34.37;;;19.27;;
1613;SDS011;800;48.824;9.346;2024-01-11T05:39:16;33.93;;;19.07;;
1613;SDS011;800;48.824;9.346;2024-01-11T05:41:45;39.40;;;20.63;;
1613;SDS011;800;48.824;9.346;2024-01-11T05:44:10;33.57;;;19.87;;
1613;SDS011;800;48.824;9.346;2024-01-11T05:46:36;32.00;;;18.27;;
1613;SDS011;800;48.824;9.346;2024-01-11T05:49:02;36.60;;;21.87;;
1613;SDS011;800;48.824;9.346;2024-01-11T05:51:28;36.00;;;21.13;;
1613;SDS011;800;48.824;9.346;2024-01-11T05:53:54;35.00;;;20.00;;
1613;SDS011;800;48.824;9.346;2024-01-11T05:56:20;32.80;;;19.07;;
1613;SDS011;800;48.824;9.346;2024-01-11T05:58:45;34.43;;;19.80;;
1613;SDS011;800;48.824;9.346;2024-01-11T06:01:11;37.60;;;19.83;;
1613;SDS011;800;48.824;9.346;2024-01-11T06:03:37;41.57;;;20.87;;
1613;SDS011;800;48.824;9.346;2024-01-11T06:06:05;40.17;;;20.17;;
1613;SDS011;800;48.824;9.346;2024-01-11T06:08:30;38.03;;;20.00;;
1613;SDS011;800;48.824;9.346;2024-01-11T06:10:57;33.63;;;19.80;;
1613;SDS011;800;48.824;9.346;2024-01-11T06:13:23;31.70;;;20.07;;
1613;SDS011;800;48.824;9.346;2024-01-11T06:15:49;46.67;;;20.93;;
1613;SDS011;800;48.824;9.346;2024-01-11T06:18:15;37.87;;;20.27;;
1613;SDS011;800;48.824;9.346;2024-01-11T06:20:41;46.00;;;27.47;;
1613;SDS011;800;48.824;9.346;2024-01-11T06:23:06;37.77;;;20.83;;
1613;SDS011;800;48.824;9.346;2024-01-11T06:25:32;39.50;;;20.97;;
1613;SDS011;800;48.824;9.346;2024-01-11T06:27:58;36.67;;;21.73;;
1613;SDS011;800;48.824;9.346;2024-01-11T06:30:24;36.73;;;20.23;;
1613;SDS011;800;48.824;9.346;2024-01-11T06:32:49;38.17;;;21.30;;
1613;SDS011;800;48.824;9.346;2024-01-11T06:35:15;41.33;;;21.33;;
1613;SDS011;800;48.824;9.346;2024-01-11T06:37:40;36.47;;;20.90;;
1613;SDS011;800;48.824;9.346;2024-01-11T06:40:06;35.90;;;21.67;;
1613;SDS011;800;48.824;9.346;2024-01-11T06:42:33;40.93;;;21.20;;
1613;SDS011;800;48.824;9.346;2024-01-11T06:44:59;34.83;;;20.27;;
1613;SDS011;800;48.824;9.346;2024-01-11T06:47:25;34.57;;;20.10;;
1613;SDS011;800;48.824;9.346;2024-01-11T06:49:50;36.03;;;19.80;;
1613;SDS011;800;48.824;9.346;2024-01-11T06:52:16;36.07;;;21.27;;
1613;SDS011;800;48.824;9.346;2024-01-11T06:54:41;38.67;;;22.53;;
1613;SDS011;800;48.824;9.346;2024-01-11T06:57:07;43.27;;;26.60;;
1613;SDS011;800;48.824;9.346;2024-01-11T06:59:33;37.33;;;23.07;;
1613;SDS011;800;48.824;9.346;2024-01-11T07:01:58;34.67;;;20.20;;
1613;SDS011;800;48.824;9.346;2024-01-11T07:04:24;40.73;;;22.27;;
1613;SDS011;800;48.824;9.346;2024-01-11T07:06:50;38.67;;;20.63;;
1613;SDS011;800;48.824;9.346;2024-01-11T07:09:15;41.90;;;21.40;;
1613;SDS011;800;48.824;9.346;2024-01-11T07:11:42;40.07;;;22.80;;
1613;SDS011;800;48.824;9.346;2024-01-11T07:14:08;41.40;;;21.93;;
1613;SDS011;800;48.824;9.346;2024-01-11T07:16:34;32.33;;;20.43;;
1613;SDS011;800;48.824;9.346;2024-01-11T07:19:00;39.10;;;22.97;;
1613;SDS011;800;48.824;9.346;2024-01-11T07:21:25;45.17;;;21.20;;
1613;SDS011;800;48.824;9.346;2024-01-11T07:24:00;38.97;;;23.00;;
1613;SDS011;800;48.824;9.346;2024-01-11T07:26:26;40.60;;;22.37;;
1613;SDS011;800;48.824;9.346;2024-01-11T07:28:52;35.93;;;21.27;;
1613;SDS011;800;48.824;9.346;2024-01-11T07:31:19;42.23;;;22.40;;
1613;SDS011;800;48.824;9.346;2024-01-11T07:33:45;36.20;;;20.23;;
1613;SDS011;800;48.824;9.346;2024-01-11T07:36:11;42.37;;;21.83;;
1613;SDS011;800;48.824;9.346;2024-01-11T07:38:36;46.30;;;22.33;;
1613;SDS011;800;48.824;9.346;2024-01-11T07:41:02;40.27;;;20.83;;
1613;SDS011;800;48.824;9.346;2024-01-11T07:43:28;45.30;;;24.67;;
1613;SDS011;800;48.824;9.346;2024-01-11T07:45:54;39.17;;;21.73;;
1613;SDS011;800;48.824;9.346;2024-01-11T07:48:21;44.27;;;21.80;;
1613;SDS011;800;48.824;9.346;2024-01-11T07:50:48;47.00;;;21.90;;
1613;SDS011;800;48.824;9.346;2024-01-11T07:53:13;43.27;;;24.37;;
1613;SDS011;800;48.824;9.346;2024-01-11T07:55:39;36.93;;;20.83;;
1613;SDS011;800;48.824;9.346;2024-01-11T07:58:05;38.30;;;22.10;;
1613;SDS011;800;48.824;9.346;2024-01-11T08:00:31;40.73;;;23.00;;
1613;SDS011;800;48.824;9.346;2024-01-11T08:02:57;35.70;;;20.67;;
1613;SDS011;800;48.824;9.346;2024-01-11T08:05:22;34.23;;;21.63;;
1613;SDS011;800;48.824;9.346;2024-01-11T08:07:48;39.20;;;22.50;;
1613;SDS011;800;48.824;9.346;2024-01-11T08:10:14;38.30;;;21.97;;
1613;SDS011;800;48.824;9.346;2024-01-11T08:12:39;44.23;;;22.80;;
1613;SDS011;800;48.824;9.346;2024-01-11T08:15:05;40.70;;;23.97;;
1613;SDS011;800;48.824;9.346;2024-01-11T08:17:30;41.87;;;25.10;;
1613;SDS011;800;48.824;9.346;2024-01-11T08:19:56;43.93;;;24.87;;
1613;SDS011;800;48.824;9.346;2024-01-11T08:22:22;38.70;;;25.70;;
1613;SDS011;800;48.824;9.346;2024-01-11T08:24:48;45.70;;;24.60;;
1613;SDS011;800;48.824;9.346;2024-01-11T08:27:14;40.23;;;25.07;;
1613;SDS011;800;48.824;9.346;2024-01-11T08:29:42;37.60;;;23.60;;
1613;SDS011;800;48.824;9.346;2024-01-11T08:32:08;41.63;;;25.10;;
1613;SDS011;800;48.824;9.346;2024-01-11T08:34:34;41.57;;;24.70;;
1613;SDS011;800;48.824;9.346;2024-01-11T08:36:59;37.83;;;22.53;;
1613;SDS011;800;48.824;9.346;2024-01-11T08:39:25;41.10;;;24.77;;
1613;SDS011;800;48.824;9.346;2024-01-11T08:41:50;40.13;;;24.47;;
1613;SDS011;800;48.824;9.346;2024-01-11T08:44:17;47.30;;;24.10;;
1613;SDS011;800;48.824;9.346;2024-01-11T08:46:43;42.73;;;25.00;;
1613;SDS011;800;48.824;9.346;2024-01-11T08:49:09;41.50;;;23.30;;
1613;SDS011;800;48.824;9.346;2024-01-11T08:51:34;41.67;;;24.50;;
1613;SDS011;800;48.824;9.346;2024-01-11T08:54:00;40.90;;;21.80;;
1613;SDS011;800;48.824;9.346;2024-01-11T08:56:25;40.03;;;23.33;;
1613;SDS011;800;48.824;9.346;2024-01-11T08:58:51;42.73;;;24.20;;
1613;SDS011;800;48.824;9.346;2024-01-11T09:01:17;44.87;;;23.97;;
1613;SDS011;800;48.824;9.346;2024-01-11T09:03:43;45.10;;;23.90;;
1613;SDS011;800;48.824;9.346;2024-01-11T09:06:08;42.07;;;23.73;;
1613;SDS011;800;48.824;9.346;2024-01-11T09:08:35;37.47;;;22.10;;
1613;SDS011;800;48.824;9.346;2024-01-11T09:11:00;43.57;;;24.00;;
1613;SDS011;800;48.824;9.346;2024-01-11T09:13:27;36.80;;;22.43;;
1613;SDS011;800;48.824;9.346;2024-01-11T09:15:53;38.93;;;22.80;;
1613;SDS011;800;48.824;9.346;2024-01-11T09:18:19;38.97;;;24.07;;
1613;SDS011;800;48.824;9.346;2024-01-11T09:20:45;42.70;;;24.60;;
1613;SDS011;800;48.824;9.346;2024-01-11T09:23:11;41.73;;;23.47;;
1613;SDS011;800;48.824;9.346;2024-01-11T09:25:36;41.53;;;24.50;;
1613;SDS011;800;48.824;9.346;2024-01-11T09:28:02;37.87;;;23.50;;
1613;SDS011;800;48.824;9.346;2024-01-11T09:30:28;38.73;;;23.67;;
1613;SDS011;800;48.824;9.346;2024-01-11T09:32:54;42.23;;;24.17;;
1613;SDS011;800;48.824;9.346;2024-01-11T09:35:21;37.83;;;23.80;;
1613;SDS011;800;48.824;9.346;2024-01-11T09:37:47;36.90;;;23.33;;
1613;SDS011;800;48.824;9.346;2024-01-11T09:40:12;40.47;;;25.20;;
1613;SDS011;800;48.824;9.346;2024-01-11T09:42:38;43.30;;;26.27;;
1613;SDS011;800;48.824;9.346;2024-01-11T09:45:07;41.00;;;24.43;;
1613;SDS011;800;48.824;9.346;2024-01-11T09:47:34;44.00;;;25.00;;
1613;SDS011;800;48.824;9.346;2024-01-11T09:50:02;40.40;;;25.50;;
1613;SDS011;800;48.824;9.346;2024-01-11T09:52:28;46.47;;;25.87;;
1613;SDS011;800;48.824;9.346;2024-01-11T09:54:57;42.37;;;26.50;;
1613;SDS011;800;48.824;9.346;2024-01-11T09:57:29;39.40;;;24.93;;
1613;SDS011;800;48.824;9.346;2024-01-11T09:59:56;42.77;;;24.20;;
1613;SDS011;800;48.824;9.346;2024-01-11T10:02:23;44.30;;;25.77;;
1613;SDS011;800;48.824;9.346;2024-01-11T10:04:50;42.43;;;26.17;;
1613;SDS011;800;48.824;9.346;2024-01-11T10:07:17;41.80;;;26.90;;
1613;SDS011;800;48.824;9.346;2024-01-11T10:09:46;36.87;;;24.40;;
1613;SDS011;800;48.824;9.346;2024-01-11T10:12:12;39.43;;;25.93;;
1613;SDS011;800;48.824;9.346;2024-01-11T10:14:38;39.13;;;25.27;;
1613;SDS011;800;48.824;9.346;2024-01-11T10:17:04;42.33;;;26.37;;
1613;SDS011;800;48.824;9.346;2024-01-11T10:19:30;42.63;;;25.13;;
1613;SDS011;800;48.824;9.346;2024-01-11T10:21:55;43.63;;;26.30;;
1613;SDS011;800;48.824;9.346;2024-01-11T10:24:23;38.87;;;24.83;;
1613;SDS011;800;48.824;9.346;2024-01-11T10:26:51;40.20;;;25.20;;
1613;SDS011;800;48.824;9.346;2024-01-11T10:29:20;40.67;;;24.57;;
1613;SDS011;800;48.824;9.346;2024-01-11T10:31:45;41.43;;;27.10;;
1613;SDS011;800;48.824;9.346;2024-01-11T10:34:11;49.67;;;28.20;;
1613;SDS011;800;48.824;9.346;2024-01-11T10:36:37;45.80;;;27.30;;
1613;SDS011;800;48.824;9.346;2024-01-11T10:39:03;33.47;;;24.67;;
1613;SDS011;800;48.824;9.346;2024-01-11T10:41:31;41.27;;;25.00;;
1613;SDS011;800;48.824;9.346;2024-01-11T10:44:01;37.80;;;25.10;;
1613;SDS011;800;48.824;9.346;2024-01-11T10:46:28;35.13;;;25.63;;
1613;SDS011;800;48.824;9.346;2024-01-11T10:48:56;41.47;;;26.17;;
1613;SDS011;800;48.824;9.346;2024-01-11T10:51:24;40.03;;;27.60;;
1613;SDS011;800;48.824;9.346;2024-01-11T10:53:53;40.53;;;26.70;;
1613;SDS011;800;48.824;9.346;2024-01-11T10:56:19;40.87;;;25.80;;
1613;SDS011;800;48.824;9.346;2024-01-11T10:58:45;41.37;;;25.10;;
1613;SDS011;800;48.824;9.346;2024-01-11T11:01:12;39.47;;;25.67;;
1613;SDS011;800;48.824;9.346;2024-01-11T11:03:38;40.93;;;26.60;;
1613;SDS011;800;48.824;9.346;2024-01-11T11:06:04;45.90;;;26.83;;
1613;SDS011;800;48.824;9.346;2024-01-11T11:08:31;39.07;;;25.50;;
1613;SDS011;800;48.824;9.346;2024-01-11T11:10:57;42.00;;;27.90;;
1613;SDS011;800;48.824;9.346;2024-01-11T11:13:24;42.20;;;27.93;;
1613;SDS011;800;48.824;9.346;2024-01-11T11:15:51;42.40;;;27.93;;
1613;SDS011;800;48.824;9.346;2024-01-11T11:18:18;40.83;;;27.50;;
1613;SDS011;800;48.824;9.346;2024-01-11T11:20:44;46.10;;;28.20;;
1613;SDS011;800;48.824;9.346;2024-01-11T11:23:11;39.10;;;26.63;;
1613;SDS011;800;48.824;9.346;2024-01-11T11:25:39;42.97;;;27.43;;
1613;SDS011;800;48.824;9.346;2024-01-11T11:28:05;41.20;;;27.80;;
1613;SDS011;800;48.824;9.346;2024-01-11T11:30:38;36.67;;;25.03;;
1613;SDS011;800;48.824;9.346;2024-01-11T11:33:16;47.30;;;29.40;;
1613;SDS011;800;48.824;9.346;2024-01-11T11:35:42;40.63;;;26.57;;
1613;SDS011;800;48.824;9.346;2024-01-11T11:38:08;35.67;;;24.50;;
1613;SDS011;800;48.824;9.346;2024-01-11T11:40:48;36.60;;;24.93;;
1613;SDS011;800;48.824;9.346;2024-01-11T11:43:17;43.43;;;29.40;;
1613;SDS011;800;48.824;9.346;2024-01-11T11:45:44;44.67;;;28.90;;
1613;SDS011;800;48.824;9.346;2024-01-11T11:51:05;42.53;;;28.23;;
1613;SDS011;800;48.824;9.346;2024-01-11T11:53:38;40.40;;;27.90;;
1613;SDS011;800;48.824;9.346;2024-01-11T11:56:05;42.47;;;28.13;;
1613;SDS011;800;48.824;9.346;2024-01-11T11:58:32;41.13;;;28.47;;
1613;SDS011;800;48.824;9.346;2024-01-11T12:00:59;38.40;;;27.27;;
1613;SDS011;800;48.824;9.346;2024-01-11T12:03:28;45.90;;;27.77;;
1613;SDS011;800;48.824;9.346;2024-01-11T12:05:58;44.40;;;27.63;;
1613;SDS011;800;48.824;9.346;2024-01-11T12:08:25;38.77;;;27.17;;
1613;SDS011;800;48.824;9.346;2024-01-11T12:10:51;39.90;;;28.37;;
1613;SDS011;800;48.824;9.346;2024-01-11T12:13:20;44.33;;;26.50;;
1613;SDS011;800;48.824;9.346;2024-01-11T12:15:46;39.17;;;25.60;;
1613;SDS011;800;48.824;9.346;2024-01-11T12:18:11;37.37;;;27.03;;
1613;SDS011;800;48.824;9.346;2024-01-11T12:20:37;42.20;;;26.33;;
1613;SDS011;800;48.824;9.346;2024-01-11T12:23:03;40.00;;;26.73;;
1613;SDS011;800;48.824;9.346;2024-01-11T12:25:30;38.33;;;26.70;;
1613;SDS011;800;48.824;9.346;2024-01-11T12:27:56;40.60;;;27.93;;
1613;SDS011;800;48.824;9.346;2024-01-11T12:30:22;38.93;;;26.30;;
1613;SDS011;800;48.824;9.346;2024-01-11T12:32:49;41.37;;;27.10;;
1613;SDS011;800;48.824;9.346;2024-01-11T12:35:15;38.97;;;26.73;;
1613;SDS011;800;48.824;9.346;2024-01-11T12:37:51;39.03;;;26.37;;
1613;SDS011;800;48.824;9.346;2024-01-11T12:40:24;36.87;;;25.80;;
1613;SDS011;800;48.824;9.346;2024-01-11T12:42:52;42.27;;;29.13;;
1613;SDS011;800;48.824;9.346;2024-01-11T12:45:17;37.90;;;26.87;;
1613;SDS011;800;48.824;9.346;2024-01-11T12:47:44;38.33;;;27.53;;
1613;SDS011;800;48.824;9.346;2024-01-11T12:50:11;39.90;;;28.50;;
1613;SDS011;800;48.824;9.346;2024-01-11T12:52:37;41.43;;;27.67;;
1613;SDS011;800;48.824;9.346;2024-01-11T12:55:03;36.20;;;26.87;;
1613;SDS011;800;48.824;9.346;2024-01-11T12:57:29;40.63;;;27.27;;
1613;SDS011;800;48.824;9.346;2024-01-11T12:59:55;41.90;;;28.50;;
1613;SDS011;800;48.824;9.346;2024-01-11T13:02:38;39.63;;;26.10;;
1613;SDS011;800;48.824;9.346;2024-01-11T13:05:04;41.50;;;27.33;;
1613;SDS011;800;48.824;9.346;2024-01-11T13:07:30;41.13;;;28.27;;
1613;SDS011;800;48.824;9.346;2024-01-11T13:09:57;41.77;;;27.87;;
1613;SDS011;800;48.824;9.346;2024-01-11T13:12:22;39.30;;;30.05;;
1613;SDS011;800;48.824;9.346;2024-01-11T13:14:48;40.60;;;26.80;;
1613;SDS011;800;48.824;9.346;2024-01-11T13:17:15;41.80;;;28.37;;
1613;SDS011;800;48.824;9.346;2024-01-11T13:19:41;34.97;;;26.50;;
1613;SDS011;800;48.824;9.346;2024-01-11T13:22:06;38.10;;;26.83;;
1613;SDS011;800;48.824;9.346;2024-01-11T13:24:32;37.47;;;26.80;;
1613;SDS011;800;48.824;9.346;2024-01-11T13:26:57;35.40;;;27.33;;
1613;SDS011;800;48.824;9.346;2024-01-11T13:29:23;41.17;;;27.60;;
1613;SDS011;800;48.824;9.346;2024-01-11T13:31:49;39.57;;;27.70;;
1613;SDS011;800;48.824;9.346;2024-01-11T13:34:14;38.03;;;27.43;;
1613;SDS011;800;48.824;9.346;2024-01-11T13:36:40;39.20;;;26.70;;
1613;SDS011;800;48.824;9.346;2024-01-11T13:39:06;40.37;;;27.27;;
1613;SDS011;800;48.824;9.346;2024-01-11T13:41:33;40.03;;;27.50;;
1613;SDS011;800;48.824;9.346;2024-01-11T13:43:59;38.63;;;27.40;;
1613;SDS011;800;48.824;9.346;2024-01-11T13:46:25;38.33;;;27.60;;
1613;SDS011;800;48.824;9.346;2024-01-11T13:48:50;39.93;;;28.17;;
1613;SDS011;800;48.824;9.346;2024-01-11T13:51:16;36.60;;;25.77;;
1613;SDS011;800;48.824;9.346;2024-01-11T13:53:42;40.60;;;27.90;;
1613;SDS011;800;48.824;9.346;2024-01-11T13:56:08;41.60;;;26.70;;
1613;SDS011;800;48.824;9.346;2024-01-11T13:58:33;40.93;;;28.13;;
1613;SDS011;800;48.824;9.346;2024-01-11T14:00:59;39.30;;;26.87;;
1613;SDS011;800;48.824;9.346;2024-01-11T14:03:25;40.90;;;28.37;;
1613;SDS011;800;48.824;9.346;2024-01-11T14:05:50;36.43;;;26.67;;
1613;SDS011;800;48.824;9.346;2024-01-11T14:08:16;40.40;;;29.03;;
1613;SDS011;800;48.824;9.346;2024-01-11T14:10:42;42.33;;;28.27;;
1613;SDS011;800;48.824;9.346;2024-01-11T14:13:07;41.40;;;27.53;;
1613;SDS011;800;48.824;9.346;2024-01-11T14:15:34;37.27;;;27.73;;
1613;SDS011;800;48.824;9.346;2024-01-11T14:18:00;45.27;;;28.40;;
1613;SDS011;800;48.824;9.346;2024-01-11T14:20:25;45.27;;;28.80;;
1613;SDS011;800;48.824;9.346;2024-01-11T14:22:52;40.07;;;27.37;;
1613;SDS011;800;48.824;9.346;2024-01-11T14:25:18;40.13;;;25.67;;
1613;SDS011;800;48.824;9.346;2024-01-11T14:27:47;39.50;;;26.63;;
1613;SDS011;800;48.824;9.346;2024-01-11T14:30:13;39.63;;;27.63;;
1613;SDS011;800;48.824;9.346;2024-01-11T14:32:39;42.70;;;27.53;;
1613;SDS011;800;48.824;9.346;2024-01-11T14:35:06;34.20;;;25.73;;
1613;SDS011;800;48.824;9.346;2024-01-11T14:37:33;42.27;;;27.30;;
1613;SDS011;800;48.824;9.346;2024-01-11T14:40:00;35.10;;;26.73;;
1613;SDS011;800;48.824;9.346;2024-01-11T14:42:26;37.47;;;26.23;;
1613;SDS011;800;48.824;9.346;2024-01-11T14:44:52;40.07;;;26.03;;
1613;SDS011;800;48.824;9.346;2024-01-11T14:47:18;40.33;;;28.17;;
1613;SDS011;800;48.824;9.346;2024-01-11T14:49:44;37.27;;;27.23;;
1613;SDS011;800;48.824;9.346;2024-01-11T14:52:11;37.67;;;26.73;;
1613;SDS011;800;48.824;9.346;2024-01-11T14:54:36;36.83;;;25.27;;
1613;SDS011;800;48.824;9.346;2024-01-11T14:57:03;40.90;;;26.30;;